Time;durP1;ratioP1;P1;durP2;ratioP2;P2;SDS_P1;SDS_P2;PMS_P1;PMS_P2;Temp;Humidity;BMP_temperature;BMP_pressure;BME280_temperature;BME280_humidity;BME280_pressure;Samples;Min_cycle;Max_cycle;Signal;HPM_P1;HPM_P2
2023/03/19 00:01:50;;;;;;;2.90;1.13;;;;;;;5.81;100.00;99918.50;5112281;28;20197;-58
2023/03/19 00:04:17;;;;;;;3.63;1.90;;;;;;;5.79;100.00;99912.66;5111825;28;20317;-63
2023/03/19 00:06:44;;;;;;;1.27;1.10;;;;;;;5.68;100.00;99913.91;5111739;28;20224;-58
2023/03/19 00:09:11;;;;;;;1.33;1.17;;;;;;;5.60;100.00;99910.03;5112161;28;20610;-58
2023/03/19 00:11:38;;;;;;;1.00;0.90;;;;;;;5.50;100.00;99909.56;5112022;28;20205;-63
2023/03/19 00:14:06;;;;;;;1.60;1.30;;;;;;;5.47;100.00;99904.59;5111511;28;20735;-63
2023/03/19 00:16:33;;;;;;;0.60;0.60;;;;;;;5.36;100.00;99901.66;5111805;28;20201;-58
2023/03/19 00:19:01;;;;;;;1.43;1.07;;;;;;;5.40;100.00;99893.84;5111466;28;20225;-63
2023/03/19 00:21:28;;;;;;;1.17;1.07;;;;;;;5.40;100.00;99890.50;5111643;28;20198;-63
2023/03/19 00:23:59;;;;;;;1.33;0.90;;;;;;;5.36;100.00;99886.44;5111008;28;20240;-63
2023/03/19 00:26:27;;;;;;;2.20;0.80;;;;;;;5.32;100.00;99892.50;5111096;28;20229;-58
2023/03/19 00:28:54;;;;;;;0.90;0.87;;;;;;;5.17;100.00;99879.50;5111309;28;20213;-63
2023/03/19 00:31:20;;;;;;;1.47;1.00;;;;;;;5.03;100.00;99874.13;5111246;28;20201;-58
2023/03/19 00:33:47;;;;;;;1.10;0.87;;;;;;;4.95;100.00;99887.09;5111071;28;20243;-63
2023/03/19 00:36:16;;;;;;;1.83;0.80;;;;;;;4.97;100.00;99885.31;5111277;28;20209;-58
2023/03/19 00:38:43;;;;;;;1.53;1.00;;;;;;;4.99;100.00;99877.66;5111071;28;20217;-58
2023/03/19 00:41:11;;;;;;;1.90;1.57;;;;;;;4.98;100.00;99873.47;5110955;28;20262;-63
2023/03/19 00:43:38;;;;;;;1.13;1.03;;;;;;;4.95;100.00;99876.13;5110968;28;21003;-63
2023/03/19 00:46:05;;;;;;;1.00;0.87;;;;;;;5.05;100.00;99881.69;5111021;28;20204;-58
2023/03/19 00:48:33;;;;;;;1.80;0.87;;;;;;;4.93;100.00;99872.81;5110492;28;20217;-63
2023/03/19 00:51:03;;;;;;;0.93;0.60;;;;;;;4.74;100.00;99868.41;5111023;28;20211;-59
2023/03/19 00:53:32;;;;;;;1.77;1.23;;;;;;;4.64;100.00;99867.06;5111159;28;20307;-58
2023/03/19 00:55:59;;;;;;;0.50;0.50;;;;;;;4.54;100.00;99865.75;5110686;28;20200;-63
2023/03/19 00:58:25;;;;;;;0.70;0.70;;;;;;;4.53;100.00;99867.44;5110667;28;20228;-62
2023/03/19 01:00:53;;;;;;;2.37;0.90;;;;;;;4.59;100.00;99863.88;5110757;28;20679;-58
2023/03/19 01:03:20;;;;;;;1.87;1.10;;;;;;;4.59;100.00;99858.00;5110530;28;20237;-63
2023/03/19 01:05:47;;;;;;;0.83;0.80;;;;;;;4.65;100.00;99857.78;5110549;28;20201;-63
2023/03/19 01:08:15;;;;;;;7.57;1.43;;;;;;;4.54;100.00;99855.63;5110597;28;20221;-63
2023/03/19 01:10:43;;;;;;;1.27;0.67;;;;;;;4.52;100.00;99855.69;5110543;28;20247;-58
2023/03/19 01:13:10;;;;;;;1.83;0.90;;;;;;;4.50;100.00;99859.13;5110635;28;20225;-58
2023/03/19 01:15:37;;;;;;;1.33;0.90;;;;;;;4.47;100.00;99851.66;5110221;28;20204;-58
2023/03/19 01:18:05;;;;;;;1.20;1.10;;;;;;;4.48;100.00;99854.16;5110304;28;20221;-63
2023/03/19 01:20:32;;;;;;;1.23;0.70;;;;;;;4.39;100.00;99851.91;5110467;28;20197;-63
2023/03/19 01:23:00;;;;;;;0.73;0.73;;;;;;;4.35;100.00;99864.75;5110538;28;20227;-58
2023/03/19 01:25:27;;;;;;;1.73;1.07;;;;;;;4.23;100.00;99851.63;5109993;27;20744;-58
2023/03/19 01:27:56;;;;;;;1.63;1.00;;;;;;;4.25;100.00;99849.88;5110002;28;20217;-58
2023/03/19 01:30:23;;;;;;;0.43;0.43;;;;;;;4.26;100.00;99855.75;5110291;28;20201;-58
2023/03/19 01:32:51;;;;;;;1.47;1.17;;;;;;;4.28;100.00;99851.47;5110253;28;20502;-63
2023/03/19 01:35:18;;;;;;;0.70;0.67;;;;;;;4.34;100.00;99858.03;5110352;28;20200;-63
2023/03/19 01:37:45;;;;;;;1.20;0.80;;;;;;;4.35;100.00;99849.56;5110186;28;20224;-63
2023/03/19 01:40:13;;;;;;;2.07;1.13;;;;;;;4.39;100.00;99853.63;5110233;28;20198;-58
2023/03/19 01:42:56;;;;;;;0.90;0.87;;;;;;;4.40;100.00;99850.22;5109762;28;20217;-63
2023/03/19 01:45:35;;;;;;;0.70;0.70;;;;;;;4.43;100.00;99850.13;5110006;28;20205;-57
2023/03/19 01:48:03;;;;;;;0.13;0.13;;;;;;;4.50;100.00;99851.53;5110134;28;20583;-59
2023/03/19 01:50:41;;;;;;;0.73;0.60;;;;;;;4.58;100.00;99859.69;5110284;28;20189;-58
2023/03/19 01:53:11;;;;;;;0.73;0.70;;;;;;;4.71;100.00;99850.81;5109718;28;20728;-63
2023/03/19 01:55:39;;;;;;;1.43;1.33;;;;;;;4.69;100.00;99867.75;5110031;28;20205;-58
2023/03/19 01:58:08;;;;;;;0.50;0.50;;;;;;;4.67;100.00;99861.91;5109764;28;20754;-58
2023/03/19 02:00:38;;;;;;;0.60;0.60;;;;;;;4.69;100.00;99862.69;5110114;28;20197;-58
2023/03/19 02:03:06;;;;;;;0.80;0.80;;;;;;;4.68;100.00;99868.66;5113925;28;20217;-63
2023/03/19 02:05:34;;;;;;;1.10;0.77;;;;;;;4.73;100.00;99866.75;5114247;28;20189;-58
2023/03/19 02:08:06;;;;;;;0.73;0.60;;;;;;;4.94;100.00;99864.31;5114280;28;20299;-63
2023/03/19 02:10:34;;;;;;;1.87;1.13;;;;;;;5.07;100.00;99867.25;5114075;28;20189;-58
2023/03/19 02:13:01;;;;;;;1.83;0.60;;;;;;;5.04;100.00;99865.66;5114084;28;20240;-63
2023/03/19 02:15:29;;;;;;;0.57;0.57;;;;;;;4.96;100.00;99865.91;5113869;28;20485;-58
2023/03/19 02:17:56;;;;;;;0.57;0.33;;;;;;;4.83;100.00;99872.34;5113994;28;20221;-58
2023/03/19 02:20:29;;;;;;;0.53;0.53;;;;;;;4.57;100.00;99863.13;5113851;28;20197;-63
2023/03/19 02:23:09;;;;;;;0.70;0.70;;;;;;;4.74;100.00;99868.41;5113869;28;20236;-58
2023/03/19 02:25:45;;;;;;;1.67;1.20;;;;;;;4.73;100.00;99865.94;5113752;28;20194;-58
2023/03/19 02:28:18;;;;;;;2.10;1.10;;;;;;;4.60;100.00;99863.00;5113772;28;20212;-58
2023/03/19 02:30:47;;;;;;;1.00;0.67;;;;;;;4.58;100.00;99869.84;5113703;28;20198;-63
2023/03/19 02:33:16;;;;;;;1.47;0.70;;;;;;;4.64;100.00;99867.06;5113917;28;20221;-63
2023/03/19 02:35:46;;;;;;;0.37;0.37;;;;;;;4.70;100.00;99861.78;5113865;28;20197;-58
2023/03/19 02:38:14;;;;;;;0.83;0.83;;;;;;;4.76;100.00;99861.56;5113610;28;20225;-58
2023/03/19 02:40:48;;;;;;;1.90;0.90;;;;;;;4.93;100.00;99860.16;5113650;28;20197;-58
2023/03/19 02:43:16;;;;;;;0.53;0.50;;;;;;;4.91;100.00;99866.97;5113401;28;20602;-63
2023/03/19 02:45:43;;;;;;;2.03;1.30;;;;;;;4.86;100.00;99861.22;5113171;28;20209;-62
2023/03/19 02:48:10;;;;;;;1.20;0.70;;;;;;;4.88;100.00;99867.06;5113395;28;20217;-63
2023/03/19 02:50:37;;;;;;;1.27;0.97;;;;;;;4.94;100.00;99869.38;5113463;28;20189;-63
2023/03/19 02:53:03;;;;;;;0.60;0.60;;;;;;;4.87;100.00;99867.97;5113383;28;20214;-63
2023/03/19 02:55:31;;;;;;;1.00;0.90;;;;;;;4.82;100.00;99863.06;5113271;28;20197;-63
2023/03/19 02:57:58;;;;;;;1.20;1.10;;;;;;;4.83;100.00;99858.81;5112917;28;20610;-63
2023/03/19 03:00:27;;;;;;;1.00;0.90;;;;;;;4.84;100.00;99865.56;5113141;28;20212;-58
2023/03/19 03:02:56;;;;;;;1.43;0.87;;;;;;;4.85;100.00;99869.72;5113005;28;20248;-63
2023/03/19 03:05:23;;;;;;;1.73;0.60;;;;;;;4.81;100.00;99863.13;5112921;28;20705;-63
2023/03/19 03:07:50;;;;;;;0.77;0.77;;;;;;;4.92;100.00;99861.03;5113240;28;20220;-58
2023/03/19 03:10:17;;;;;;;0.73;0.73;;;;;;;4.87;100.00;99858.66;5113152;28;20201;-63
2023/03/19 03:12:45;;;;;;;1.07;0.93;;;;;;;4.80;100.00;99861.47;5112425;28;20278;-63
2023/03/19 03:15:12;;;;;;;0.80;0.80;;;;;;;4.83;100.00;99861.34;5113125;28;20197;-63
2023/03/19 03:17:43;;;;;;;0.73;0.73;;;;;;;4.91;100.00;99860.19;5112513;28;20660;-58
2023/03/19 03:20:12;;;;;;;1.00;0.90;;;;;;;4.98;100.00;99860.81;5112943;28;20221;-63
2023/03/19 03:22:40;;;;;;;0.70;0.70;;;;;;;4.99;100.00;99862.44;5112755;28;20232;-58
2023/03/19 03:25:08;;;;;;;1.13;1.00;;;;;;;5.01;100.00;99859.88;5112660;28;20650;-63
2023/03/19 03:27:35;;;;;;;1.57;1.13;;;;;;;4.96;100.00;99857.50;5112727;28;20217;-58
2023/03/19 03:30:02;;;;;;;1.00;0.90;;;;;;;4.90;100.00;99858.53;5112632;28;20285;-63
2023/03/19 03:32:29;;;;;;;3.73;1.40;;;;;;;4.85;100.00;99857.88;5112305;28;20224;-63
2023/03/19 03:34:57;;;;;;;1.57;1.10;;;;;;;4.90;100.00;99857.72;5112233;28;20255;-58
2023/03/19 03:37:24;;;;;;;0.83;0.80;;;;;;;4.92;100.00;99858.50;5112457;28;20210;-58
2023/03/19 03:39:52;;;;;;;2.50;0.70;;;;;;;4.91;100.00;99864.44;5112345;28;20194;-63
2023/03/19 03:42:18;;;;;;;1.50;1.20;;;;;;;4.82;100.00;99870.66;5112480;28;20890;-63
2023/03/19 03:44:45;;;;;;;0.97;0.80;;;;;;;4.82;100.00;99870.66;5112141;28;20225;-63
2023/03/19 03:47:13;;;;;;;3.00;2.27;;;;;;;4.91;100.00;99879.63;5112244;28;20247;-63
2023/03/19 03:49:40;;;;;;;1.27;1.17;;;;;;;4.96;100.00;99877.78;5112199;28;20197;-58
2023/03/19 03:52:09;;;;;;;1.50;1.33;;;;;;;5.02;100.00;99880.06;5112151;28;20246;-63
2023/03/19 03:54:36;;;;;;;2.37;1.50;;;;;;;4.93;100.00;99883.78;5112037;28;20695;-63
2023/03/19 03:57:03;;;;;;;1.70;1.10;;;;;;;4.76;100.00;99871.69;5112055;28;20190;-63
2023/03/19 03:59:29;;;;;;;1.90;1.60;;;;;;;4.64;100.00;99877.22;5112156;28;20231;-58
2023/03/19 04:01:56;;;;;;;4.37;1.63;;;;;;;4.60;100.00;99880.75;5112073;28;20283;-59
2023/03/19 04:04:23;;;;;;;3.63;1.67;;;;;;;4.59;100.00;99879.06;5111747;28;20233;-63
2023/03/19 04:06:50;;;;;;;2.43;1.03;;;;;;;4.52;100.00;99870.88;5111811;28;20197;-63
2023/03/19 04:09:18;;;;;;;2.00;1.10;;;;;;;4.44;100.00;99874.53;5112013;28;20244;-63
2023/03/19 04:11:45;;;;;;;1.10;0.97;;;;;;;4.48;100.00;99876.09;5111895;28;20198;-63
2023/03/19 04:14:12;;;;;;;1.10;0.97;;;;;;;4.55;100.00;99872.47;5111562;28;20225;-63
2023/03/19 04:16:39;;;;;;;2.60;0.97;;;;;;;4.48;100.00;99871.88;5111718;28;20204;-58
2023/03/19 04:19:06;;;;;;;1.43;1.30;;;;;;;4.44;100.00;99860.19;5111640;28;20229;-63
2023/03/19 04:21:33;;;;;;;1.90;1.30;;;;;;;4.42;100.00;99867.03;5111658;28;20657;-58
2023/03/19 04:24:01;;;;;;;0.50;0.50;;;;;;;4.43;100.00;99865.31;5110511;28;20692;-58
2023/03/19 04:26:29;;;;;;;1.43;1.07;;;;;;;4.32;100.00;99870.72;5111294;28;20648;-58
2023/03/19 04:28:57;;;;;;;3.00;1.23;;;;;;;4.26;100.00;99876.81;5111312;28;20221;-58
2023/03/19 04:31:24;;;;;;;1.80;1.50;;;;;;;4.15;100.00;99878.06;5111303;28;20198;-63
2023/03/19 04:33:51;;;;;;;1.43;1.27;;;;;;;4.11;100.00;99872.28;5111209;28;20752;-58
2023/03/19 04:36:18;;;;;;;1.30;0.90;;;;;;;4.12;100.00;99878.97;5111481;28;20200;-63
2023/03/19 04:38:45;;;;;;;1.07;0.97;;;;;;;4.25;100.00;99884.47;5111018;28;20709;-58
2023/03/19 04:41:12;;;;;;;0.83;0.80;;;;;;;4.28;100.00;99881.84;5111371;28;20194;-63
2023/03/19 04:43:40;;;;;;;0.83;0.80;;;;;;;4.12;100.00;99883.22;5110881;28;20656;-63
2023/03/19 04:46:07;;;;;;;3.20;2.10;;;;;;;4.18;100.00;99876.25;5111031;28;20221;-63
2023/03/19 04:48:35;;;;;;;2.90;1.67;;;;;;;4.38;100.00;99874.75;5110955;28;20259;-58
2023/03/19 04:51:02;;;;;;;2.00;1.43;;;;;;;4.59;100.00;99874.00;5111121;28;20223;-63
2023/03/19 04:53:29;;;;;;;1.37;1.27;;;;;;;4.79;100.00;99875.84;5111000;28;20214;-58
2023/03/19 04:55:56;;;;;;;3.73;1.53;;;;;;;4.93;100.00;99882.94;5110856;28;20201;-62
2023/03/19 04:58:23;;;;;;;1.30;1.20;;;;;;;5.02;100.00;99872.47;5110831;28;20209;-58
2023/03/19 05:00:51;;;;;;;1.43;1.07;;;;;;;5.11;100.00;99877.19;5110811;28;20200;-58
2023/03/19 05:03:18;;;;;;;1.07;0.90;;;;;;;5.30;100.00;99871.47;5110710;28;20713;-63
2023/03/19 05:05:45;;;;;;;1.97;1.27;;;;;;;5.48;100.00;99875.81;5110538;28;20236;-63
2023/03/19 05:08:12;;;;;;;2.17;1.00;;;;;;;5.35;100.00;99874.63;5110434;28;20217;-58
2023/03/19 05:10:39;;;;;;;3.13;1.13;;;;;;;5.56;100.00;99873.81;5110673;28;20197;-63
2023/03/19 05:13:08;;;;;;;2.73;1.53;;;;;;;5.79;100.00;99875.44;5110550;28;20698;-63
2023/03/19 05:15:34;;;;;;;1.97;1.60;;;;;;;6.08;100.00;99881.91;5110685;28;20197;-63
2023/03/19 05:18:03;;;;;;;1.80;1.57;;;;;;;6.26;100.00;99879.50;5110453;28;20233;-58
2023/03/19 05:20:30;;;;;;;3.37;2.17;;;;;;;6.09;100.00;99881.00;5110312;28;20189;-63
2023/03/19 05:22:57;;;;;;;1.90;1.23;;;;;;;6.13;100.00;99877.44;5110357;28;20307;-58
2023/03/19 05:25:24;;;;;;;3.83;1.93;;;;;;;6.36;100.00;99873.13;5110328;28;20220;-58
2023/03/19 05:27:50;;;;;;;2.17;1.20;;;;;;;6.74;100.00;99875.75;5110571;28;20217;-58
2023/03/19 05:30:17;;;;;;;3.40;1.53;;;;;;;6.66;100.00;99873.56;5110726;28;20216;-58
2023/03/19 05:32:45;;;;;;;1.50;0.83;;;;;;;6.71;100.00;99875.88;5110338;28;20713;-63
2023/03/19 05:35:13;;;;;;;3.80;1.20;;;;;;;6.68;100.00;99870.94;5110306;28;20201;-63
2023/03/19 05:37:40;;;;;;;0.87;0.87;;;;;;;6.94;100.00;99877.41;5110385;28;20236;-58
2023/03/19 05:40:08;;;;;;;3.07;1.43;;;;;;;7.07;100.00;99875.13;5110235;28;20351;-63
2023/03/19 05:42:35;;;;;;;2.13;1.43;;;;;;;7.07;100.00;99873.44;5110462;28;20220;-64
2023/03/19 05:45:03;;;;;;;1.50;1.40;;;;;;;7.27;100.00;99875.06;5110162;28;20232;-58
2023/03/19 05:47:30;;;;;;;2.20;1.37;;;;;;;7.27;100.00;99872.50;5110198;28;20731;-64
2023/03/19 05:49:57;;;;;;;1.87;1.50;;;;;;;7.66;100.00;99876.66;5110008;28;20204;-64
2023/03/19 05:52:25;;;;;;;3.17;1.97;;;;;;;7.56;100.00;99875.41;5110448;28;20217;-64
2023/03/19 05:54:52;;;;;;;4.33;1.90;;;;;;;7.79;100.00;99874.31;5110175;28;20204;-58
2023/03/19 05:57:19;;;;;;;1.20;1.10;;;;;;;7.87;100.00;99883.25;5110483;28;20197;-58
2023/03/19 05:59:46;;;;;;;4.47;2.43;;;;;;;8.03;100.00;99882.50;5110126;28;20200;-64
2023/03/19 06:02:13;;;;;;;2.27;1.70;;;;;;;8.25;100.00;99874.63;5110159;28;20529;-59
2023/03/19 06:04:40;;;;;;;3.00;2.07;;;;;;;8.60;100.00;99875.41;5109980;28;20320;-59
2023/03/19 06:07:07;;;;;;;3.93;2.47;;;;;;;8.30;98.97;99878.59;5110143;28;20207;-63
2023/03/19 06:09:35;;;;;;;8.47;2.40;;;;;;;8.23;100.00;99882.38;5109868;28;20228;-59
2023/03/19 06:12:02;;;;;;;2.47;2.23;;;;;;;8.77;100.00;99880.47;5110430;28;20197;-59
2023/03/19 06:14:30;;;;;;;3.90;2.47;;;;;;;8.37;100.00;99874.00;5109926;28;20764;-60
2023/03/19 06:16:57;;;;;;;3.80;2.60;;;;;;;8.47;99.26;99874.41;5110191;28;20197;-63
2023/03/19 06:19:24;;;;;;;6.10;2.73;;;;;;;8.36;100.00;99885.94;5109876;28;20225;-59
2023/03/19 06:21:51;;;;;;;4.83;2.87;;;;;;;8.40;100.00;99878.97;5110009;28;20197;-63
2023/03/19 06:24:18;;;;;;;4.27;3.13;;;;;;;8.70;100.00;99880.88;5109692;28;20217;-63
2023/03/19 06:26:46;;;;;;;4.87;1.30;;;;;;;9.17;97.81;99880.91;5110039;28;20204;-59
2023/03/19 06:29:13;;;;;;;4.10;2.77;;;;;;;9.55;94.96;99885.66;5109805;28;20225;-62
2023/03/19 06:31:40;;;;;;;4.90;2.67;;;;;;;9.55;93.50;99875.47;5110045;28;20197;-63
2023/03/19 06:34:07;;;;;;;2.50;2.03;;;;;;;9.40;96.27;99876.31;5109684;28;20225;-62
2023/03/19 06:36:34;;;;;;;7.63;3.53;;;;;;;9.19;94.35;99873.16;5109921;28;20201;-59
2023/03/19 06:39:02;;;;;;;9.53;4.23;;;;;;;9.63;94.55;99880.13;5109678;28;20224;-62
2023/03/19 06:41:28;;;;;;;6.37;2.47;;;;;;;9.79;94.18;99882.66;5110154;28;20570;-60
2023/03/19 06:43:57;;;;;;;3.50;2.57;;;;;;;10.08;92.96;99888.66;5109614;28;20221;-59
2023/03/19 06:46:23;;;;;;;2.30;2.10;;;;;;;10.43;88.28;99889.19;5109973;28;20240;-60
2023/03/19 06:48:50;;;;;;;4.77;2.97;;;;;;;10.27;88.79;99888.44;5113699;28;20220;-62
2023/03/19 06:51:17;;;;;;;7.90;3.07;;;;;;;9.48;92.58;99886.91;5113789;28;20562;-62
2023/03/19 06:53:44;;;;;;;4.70;3.20;;;;;;;9.22;92.44;99884.06;5113316;28;20217;-62
2023/03/19 06:56:11;;;;;;;3.30;2.43;;;;;;;9.89;91.52;99891.44;5113572;28;20211;-59
2023/03/19 06:58:38;;;;;;;5.17;2.90;;;;;;;10.75;87.83;99894.16;5112979;28;20213;-59
2023/03/19 07:01:06;;;;;;;4.57;3.00;;;;;;;10.83;83.87;99894.50;5113601;28;20212;-63
2023/03/19 07:03:33;;;;;;;5.23;3.10;;;;;;;10.80;86.19;99892.16;5113190;28;20221;-63
2023/03/19 07:06:00;;;;;;;6.43;3.73;;;;;;;10.88;83.94;99897.63;5113590;28;20232;-59
2023/03/19 07:08:28;;;;;;;5.10;3.03;;;;;;;10.75;85.59;99889.03;5113082;28;20217;-63
2023/03/19 07:10:55;;;;;;;6.43;3.60;;;;;;;10.52;87.26;99895.50;5113124;28;20530;-59
2023/03/19 07:13:22;;;;;;;7.10;2.90;;;;;;;10.65;85.55;99881.91;5113159;28;20218;-60
2023/03/19 07:15:49;;;;;;;5.67;2.20;;;;;;;10.70;90.14;99880.81;5113311;28;20703;-62
2023/03/19 07:18:17;;;;;;;7.27;3.67;;;;;;;10.85;85.16;99885.03;5112901;28;20228;-63
2023/03/19 07:20:44;;;;;;;6.17;2.93;;;;;;;10.63;87.13;99881.19;5113110;28;20228;-62
2023/03/19 07:23:11;;;;;;;5.20;2.97;;;;;;;11.26;82.68;99879.09;5112853;27;20221;-59
2023/03/19 07:25:38;;;;;;;6.80;3.30;;;;;;;10.75;82.49;99878.81;5112600;28;20232;-60
2023/03/19 07:28:05;;;;;;;4.93;2.90;;;;;;;11.03;83.74;99881.34;5112929;28;20270;-63
2023/03/19 07:30:32;;;;;;;6.00;2.73;;;;;;;11.91;79.39;99880.97;5112685;28;20200;-63
2023/03/19 07:32:59;;;;;;;5.00;2.53;;;;;;;12.42;76.38;99888.69;5112963;28;20236;-63
2023/03/19 07:35:27;;;;;;;5.53;3.43;;;;;;;11.29;79.14;99884.03;5112811;28;20657;-60
2023/03/19 07:37:54;;;;;;;4.33;2.70;;;;;;;11.98;80.94;99885.59;5112903;28;20712;-59
2023/03/19 07:40:21;;;;;;;6.67;3.30;;;;;;;12.16;76.30;99885.31;5112822;28;20197;-63
2023/03/19 07:42:48;;;;;;;4.53;2.60;;;;;;;12.33;73.12;99887.56;5112972;28;20217;-60
2023/03/19 07:45:15;;;;;;;5.80;3.03;;;;;;;12.50;69.15;99888.19;5112378;28;20232;-60
2023/03/19 07:47:42;;;;;;;5.00;2.63;;;;;;;12.65;70.83;99882.00;5112327;28;20217;-60
2023/03/19 07:50:10;;;;;;;7.80;3.20;;;;;;;12.46;69.41;99875.56;5112287;28;20194;-63
2023/03/19 07:52:38;;;;;;;4.13;2.93;;;;;;;13.25;67.48;99880.44;5112432;28;20729;-60
2023/03/19 07:55:06;;;;;;;5.97;3.40;;;;;;;13.32;66.06;99877.38;5112219;28;20206;-63
2023/03/19 07:57:33;;;;;;;6.73;3.40;;;;;;;13.53;65.41;99884.47;5112332;28;20698;-63
2023/03/19 08:00:00;;;;;;;7.57;3.33;;;;;;;13.39;65.42;99882.06;5111056;28;20555;-60
2023/03/19 08:02:27;;;;;;;9.50;3.37;;;;;;;14.23;67.26;99889.59;5112369;28;20215;-60
2023/03/19 08:04:54;;;;;;;6.13;2.90;;;;;;;13.92;61.97;99893.59;5111894;28;20214;-60
2023/03/19 08:07:21;;;;;;;6.97;3.37;;;;;;;12.85;62.55;99888.34;5112447;28;20260;-63
2023/03/19 08:09:50;;;;;;;6.00;3.20;;;;;;;13.80;64.98;99891.94;5111960;28;20198;-60
2023/03/19 08:12:17;;;;;;;4.57;2.60;;;;;;;14.56;62.46;99890.56;5112041;28;20203;-60
2023/03/19 08:14:43;;;;;;;7.40;3.07;;;;;;;14.73;62.02;99886.72;5111810;28;20204;-63
2023/03/19 08:17:10;;;;;;;5.97;3.23;;;;;;;14.23;62.32;99894.72;5111830;28;20201;-63
2023/03/19 08:19:37;;;;;;;3.77;2.50;;;;;;;14.74;60.09;99898.66;5112090;28;20208;-64
2023/03/19 08:22:04;;;;;;;7.10;2.83;;;;;;;15.05;61.68;99897.09;5111875;28;20194;-60
2023/03/19 08:24:31;;;;;;;5.53;3.60;;;;;;;14.92;60.89;99896.41;5111881;28;20580;-60
2023/03/19 08:27:00;;;;;;;5.53;3.53;;;;;;;15.25;59.00;99890.41;5111583;28;20235;-63
2023/03/19 08:29:27;;;;;;;7.40;3.20;;;;;;;14.59;56.75;99898.06;5111589;28;20663;-59
2023/03/19 08:31:54;;;;;;;7.90;3.83;;;;;;;15.02;56.14;99892.19;5111545;28;20208;-63
2023/03/19 08:34:22;;;;;;;5.40;3.00;;;;;;;14.82;58.16;99895.50;5111548;28;20583;-60
2023/03/19 08:36:49;;;;;;;5.73;3.23;;;;;;;14.65;57.79;99894.22;5111537;28;20222;-60
2023/03/19 08:39:16;;;;;;;7.00;3.40;;;;;;;15.10;57.25;99884.69;5111313;28;20836;-59
2023/03/19 08:41:43;;;;;;;5.23;3.07;;;;;;;15.11;56.29;99888.91;5111383;28;20202;-60
2023/03/19 08:44:11;;;;;;;4.77;3.13;;;;;;;14.04;60.27;99894.44;5111133;28;20228;-60
2023/03/19 08:46:38;;;;;;;8.57;2.87;;;;;;;14.86;56.52;99887.41;5111616;28;20641;-63
2023/03/19 08:49:05;;;;;;;6.30;3.40;;;;;;;14.46;56.31;99885.28;5111105;28;20709;-59
2023/03/19 08:51:31;;;;;;;7.50;3.23;;;;;;;13.95;58.96;99879.69;5111207;27;20203;-64
2023/03/19 08:53:58;;;;;;;4.23;3.00;;;;;;;14.65;59.79;99873.63;5111008;28;20232;-64
2023/03/19 08:56:25;;;;;;;8.17;3.27;;;;;;;14.57;60.39;99871.63;5111095;28;20681;-60
2023/03/19 08:58:52;;;;;;;6.77;2.57;;;;;;;14.15;56.01;99880.81;5110918;28;20220;-60
2023/03/19 09:01:20;;;;;;;5.97;3.20;;;;;;;14.63;56.97;99865.19;5111107;28;20189;-59
2023/03/19 09:03:47;;;;;;;4.63;2.87;;;;;;;15.68;56.43;99868.13;5110936;28;20218;-60
2023/03/19 09:06:14;;;;;;;5.97;2.93;;;;;;;15.80;55.65;99872.31;5110824;28;20256;-60
2023/03/19 09:08:42;;;;;;;7.20;3.13;;;;;;;16.68;54.61;99876.16;5110688;28;20223;-63
2023/03/19 09:11:09;;;;;;;4.73;3.07;;;;;;;16.90;53.68;99863.09;5110549;28;20207;-60
2023/03/19 09:13:36;;;;;;;5.47;3.17;;;;;;;17.33;50.88;99864.50;5110571;28;20213;-60
2023/03/19 09:16:04;;;;;;;4.80;3.10;;;;;;;15.97;52.18;99858.84;5110902;28;20201;-63
2023/03/19 09:18:33;;;;;;;6.60;3.17;;;;;;;14.89;53.65;99850.31;5110671;28;20221;-63
2023/03/19 09:21:00;;;;;;;5.53;2.97;;;;;;;15.87;56.15;99842.50;5110772;28;20199;-63
2023/03/19 09:23:28;;;;;;;7.03;3.63;;;;;;;15.95;53.59;99840.09;5110522;28;20211;-63
2023/03/19 09:25:55;;;;;;;9.93;3.63;;;;;;;16.52;52.57;99838.75;5110596;28;20670;-63
2023/03/19 09:28:22;;;;;;;5.57;3.07;;;;;;;16.97;51.15;99828.00;5110790;28;20217;-63
2023/03/19 09:30:50;;;;;;;4.10;2.60;;;;;;;16.49;53.33;99828.69;5110623;28;20195;-63
2023/03/19 09:33:18;;;;;;;7.03;3.10;;;;;;;16.88;51.70;99825.41;5110527;28;20213;-60
2023/03/19 09:35:51;;;;;;;7.27;3.27;;;;;;;17.15;50.77;99824.78;5110347;28;20201;-63
2023/03/19 09:38:18;;;;;;;5.17;2.80;;;;;;;16.68;50.89;99827.09;5110467;28;20221;-60
2023/03/19 09:40:47;;;;;;;7.30;3.47;;;;;;;17.65;52.18;99827.19;5110300;28;20197;-60
2023/03/19 09:43:39;;;;;;;7.23;3.30;;;;;;;18.21;48.51;99826.44;5110483;28;20213;-64
2023/03/19 09:46:14;;;;;;;5.40;3.30;;;;;;;18.15;48.22;99824.41;5110442;28;20715;-63
2023/03/19 09:48:47;;;;;;;7.60;3.53;;;;;;;17.56;47.53;99828.84;5110212;28;20218;-60
2023/03/19 09:51:21;;;;;;;4.40;2.67;;;;;;;18.08;47.62;99829.31;5110493;28;20207;-60
2023/03/19 09:53:56;;;;;;;4.87;2.77;;;;;;;18.61;49.97;99821.91;5110343;28;20223;-64
2023/03/19 09:56:24;;;;;;;5.40;2.83;;;;;;;17.90;45.28;99825.03;5110808;28;20747;-64
2023/03/19 09:58:52;;;;;;;4.57;2.77;;;;;;;18.48;49.03;99819.66;5110111;28;20213;-60
2023/03/19 10:01:25;;;;;;;5.73;3.33;;;;;;;18.47;46.70;99821.44;5110502;28;20683;-63
2023/03/19 10:04:31;;;;;;;7.30;3.43;;;;;;;18.65;46.49;99824.06;5110313;28;20734;-60
2023/03/19 10:07:09;;;;;;;5.40;3.00;;;;;;;18.96;45.18;99821.16;5099032;28;20376;-60
2023/03/19 10:09:47;;;;;;;4.43;2.73;;;;;;;17.96;44.92;99827.88;5110146;28;20209;-60
2023/03/19 10:15:15;;;;;;;4.60;3.03;;;;;;;18.36;46.15;99815.63;5048112;28;20607;-74
2023/03/19 10:17:52;;;;;;;6.67;2.80;;;;;;;17.78;46.77;99806.28;5049207;28;20206;-74
2023/03/19 10:20:28;;;;;;;4.33;2.70;;;;;;;18.55;46.71;99805.16;5049482;28;20193;-74
2023/03/19 10:23:03;;;;;;;4.60;2.90;;;;;;;17.86;46.23;99804.63;5052172;28;20224;-73
2023/03/19 10:25:33;;;;;;;4.50;2.33;;;;;;;16.97;47.54;99807.34;5053319;28;20189;-73
2023/03/19 10:28:07;;;;;;;4.20;2.50;;;;;;;17.32;48.49;99810.38;5053179;28;20216;-74
2023/03/19 10:30:35;;;;;;;4.50;2.80;;;;;;;16.02;51.41;99804.28;5053433;28;20202;-74
2023/03/19 10:33:12;;;;;;;5.70;3.37;;;;;;;17.22;47.55;99805.22;5053548;28;20597;-74
2023/03/19 10:35:43;;;;;;;3.87;2.50;;;;;;;17.02;47.10;99795.81;5053316;28;20203;-74
2023/03/19 10:38:21;;;;;;;4.43;3.37;;;;;;;17.94;48.14;99784.97;5053235;28;20221;-74
2023/03/19 10:41:03;;;;;;;4.87;2.63;;;;;;;18.00;48.24;99779.22;5053007;28;20268;-74
2023/03/19 10:43:33;;;;;;;7.47;3.57;;;;;;;18.61;50.70;99770.91;5053426;28;20229;-74
2023/03/19 10:46:00;;;;;;;4.73;3.00;;;;;;;18.78;45.34;99769.34;5053071;28;20310;-73
2023/03/19 10:48:28;;;;;;;4.60;2.73;;;;;;;17.92;47.73;99771.34;5053227;28;20216;-74
2023/03/19 10:50:58;;;;;;;5.87;3.23;;;;;;;17.20;48.13;99770.91;5052982;28;20622;-74
2023/03/19 10:53:33;;;;;;;4.77;3.13;;;;;;;16.30;49.34;99761.50;5052941;28;20221;-74
2023/03/19 10:56:05;;;;;;;5.07;2.80;;;;;;;16.70;48.85;99758.09;5052858;28;20198;-74
2023/03/19 10:58:34;;;;;;;7.53;2.90;;;;;;;16.93;51.46;99754.34;5053276;28;20216;-76
2023/03/19 11:01:05;;;;;;;6.47;3.33;;;;;;;16.91;51.33;99751.06;5052938;28;20200;-74
2023/03/19 11:03:35;;;;;;;3.37;2.40;;;;;;;16.42;51.33;99742.38;5053098;28;20226;-74
2023/03/19 11:06:18;;;;;;;3.57;2.53;;;;;;;17.23;51.87;99739.63;5052614;28;20737;-74
2023/03/19 11:08:54;;;;;;;4.60;2.70;;;;;;;16.92;49.17;99737.19;5052813;28;20219;-74
2023/03/19 11:11:26;;;;;;;5.33;3.13;;;;;;;16.74;49.27;99738.78;5053262;28;20210;-74
2023/03/19 11:13:53;;;;;;;5.30;2.50;;;;;;;17.30;50.26;99735.53;5052463;28;20237;-74
2023/03/19 11:16:20;;;;;;;3.53;2.30;;;;;;;18.16;48.45;99738.03;5052548;28;20203;-74
2023/03/19 11:18:49;;;;;;;5.50;2.70;;;;;;;17.05;52.19;99730.94;5052660;28;20216;-74
2023/03/19 11:21:27;;;;;;;4.83;3.40;;;;;;;17.68;48.75;99728.66;5052588;28;20213;-74
2023/03/19 11:24:03;;;;;;;4.63;3.17;;;;;;;17.86;49.78;99721.03;5052300;28;20216;-74
2023/03/19 11:26:30;;;;;;;5.80;2.90;;;;;;;17.88;48.61;99714.72;5052080;28;20763;-74
2023/03/19 11:29:02;;;;;;;5.63;2.90;;;;;;;17.46;51.58;99713.50;5052229;28;20215;-74
2023/03/19 11:31:37;;;;;;;5.10;3.03;;;;;;;17.84;50.73;99705.63;5052520;28;20583;-74
2023/03/19 11:34:18;;;;;;;5.40;2.90;;;;;;;18.07;47.28;99707.84;5051789;28;20216;-74
2023/03/19 11:36:56;;;;;;;7.67;3.33;;;;;;;18.23;48.41;99696.88;5052501;28;20201;-74
2023/03/19 11:39:29;;;;;;;4.40;2.77;;;;;;;18.21;48.75;99693.59;5051816;28;20220;-74
2023/03/19 11:42:26;;;;;;;3.40;2.53;;;;;;;18.32;46.53;99701.16;5052138;28;20208;-73
2023/03/19 11:45:02;;;;;;;5.17;2.60;;;;;;;17.93;48.51;99690.22;5051281;28;20281;-74